createdAt,value
2023-05-04T00:00:34.059Z,18.40
2023-05-04T00:03:21.797Z,18.50
2023-05-04T00:06:09.592Z,18.50
2023-05-04T00:08:57.043Z,18.50
2023-05-04T00:11:44.586Z,18.50
2023-05-04T00:14:32.018Z,18.40
2023-05-04T00:17:19.850Z,18.50
2023-05-04T00:20:08.244Z,18.50
2023-05-04T00:22:55.728Z,18.50
2023-05-04T00:25:43.249Z,18.50
2023-05-04T00:28:30.759Z,18.40
2023-05-04T00:31:19.331Z,18.40
2023-05-04T00:34:07.667Z,18.30
2023-05-04T00:36:56.566Z,18.20
2023-05-04T00:39:44.144Z,18.10
2023-05-04T00:42:31.739Z,18.10
2023-05-04T00:45:19.366Z,18.20
2023-05-04T00:48:08.167Z,18.10
2023-05-04T00:50:56.415Z,18.10
2023-05-04T00:53:44.672Z,18.10
2023-05-04T00:56:33.888Z,18.00
2023-05-04T00:59:21.745Z,18.00
2023-05-04T01:02:09.362Z,17.90
2023-05-04T01:04:56.940Z,17.90
2023-05-04T01:08:17.805Z,17.70
2023-05-04T01:11:16.159Z,17.90
2023-05-04T01:14:05.823Z,17.70
2023-05-04T01:17:00.638Z,17.80
2023-05-04T01:19:48.245Z,17.60
2023-05-04T01:22:38.821Z,17.60
2023-05-04T01:25:35.876Z,17.70
2023-05-04T01:28:56.106Z,17.60
2023-05-04T01:31:46.536Z,17.50
2023-05-04T01:34:37.953Z,17.40
2023-05-04T01:37:26.573Z,17.40
2023-05-04T01:40:14.092Z,17.30
2023-05-04T01:43:01.588Z,17.20
2023-05-04T01:45:49.130Z,17.30
2023-05-04T01:48:36.736Z,17.30
2023-05-04T01:51:24.270Z,17.30
2023-05-04T01:54:11.697Z,17.20
2023-05-04T01:56:59.172Z,17.20
2023-05-04T01:59:46.705Z,17.10
2023-05-04T02:02:34.289Z,17.00
2023-05-04T02:05:21.803Z,17.00
2023-05-04T02:08:09.235Z,17.00
2023-05-04T02:10:56.783Z,17.00
2023-05-04T02:13:44.302Z,16.90
2023-05-04T02:16:31.985Z,16.70
2023-05-04T02:19:19.566Z,16.50
2023-05-04T02:22:07.156Z,16.40
2023-05-04T02:24:54.764Z,16.30
2023-05-04T02:27:42.472Z,16.30
2023-05-04T02:30:30.106Z,16.20
2023-05-04T02:33:17.617Z,16.30
2023-05-04T02:36:05.836Z,16.20
2023-05-04T02:38:54.910Z,16.10
2023-05-04T02:41:42.377Z,16.20
2023-05-04T02:44:29.764Z,16.20
2023-05-04T02:47:17.324Z,15.80
2023-05-04T02:50:06.076Z,16.00
2023-05-04T02:52:53.890Z,16.00
2023-05-04T02:55:41.467Z,16.00
2023-05-04T02:58:28.928Z,16.00
2023-05-04T03:01:16.412Z,15.90
2023-05-04T03:04:04.154Z,15.90
2023-05-04T03:06:51.687Z,16.00
2023-05-04T03:09:39.300Z,16.10
2023-05-04T03:12:26.959Z,15.90
2023-05-04T03:15:14.557Z,16.10
2023-05-04T03:18:02.079Z,16.20
2023-05-04T03:20:49.597Z,16.30
2023-05-04T03:23:37.054Z,16.40
2023-05-04T03:26:24.714Z,16.30
2023-05-04T03:29:12.112Z,16.30
2023-05-04T03:31:59.662Z,16.30
2023-05-04T03:34:47.191Z,16.20
2023-05-04T03:37:34.686Z,16.10
2023-05-04T03:40:24.374Z,15.80
2023-05-04T03:43:11.957Z,15.40
2023-05-04T03:45:59.466Z,15.30
2023-05-04T03:48:47.092Z,15.30
2023-05-04T03:51:34.552Z,15.70
2023-05-04T03:54:22.144Z,15.70
2023-05-04T03:57:09.677Z,15.50
2023-05-04T03:59:57.943Z,15.70
2023-05-04T04:02:45.594Z,15.70
2023-05-04T04:05:33.236Z,15.50
2023-05-04T04:08:20.812Z,15.70
2023-05-04T04:11:08.370Z,15.90
2023-05-04T04:13:56.441Z,16.10
2023-05-04T04:16:44.012Z,16.10
2023-05-04T04:19:31.503Z,16.30
2023-05-04T04:22:19.031Z,16.40
2023-05-04T04:25:07.308Z,16.50
2023-05-04T04:27:54.794Z,16.70
2023-05-04T04:30:42.271Z,17.00
2023-05-04T04:33:30.264Z,17.30
2023-05-04T04:36:18.352Z,18.20
2023-05-04T04:39:06.186Z,19.30
2023-05-04T04:41:53.669Z,20.00
2023-05-04T04:44:41.191Z,20.30
2023-05-04T04:47:28.637Z,20.30
2023-05-04T04:50:16.227Z,21.30
2023-05-04T04:53:03.787Z,21.60
2023-05-04T04:55:52.278Z,21.90
2023-05-04T04:58:39.716Z,22.10
2023-05-04T05:01:27.446Z,22.60
2023-05-04T05:04:15.921Z,22.90
2023-05-04T05:07:03.490Z,23.20
2023-05-04T05:09:52.034Z,24.00
2023-05-04T05:12:39.585Z,24.40
2023-05-04T05:15:27.064Z,24.60
2023-05-04T05:18:14.598Z,24.70
2023-05-04T05:21:02.147Z,25.50
2023-05-04T05:23:49.626Z,26.30
2023-05-04T05:26:37.320Z,26.40
2023-05-04T05:29:26.226Z,26.40
2023-05-04T05:32:13.773Z,26.10
2023-05-04T05:35:01.882Z,25.50
2023-05-04T05:37:49.727Z,25.70
2023-05-04T05:40:37.799Z,25.70
2023-05-04T05:43:25.472Z,25.30
2023-05-04T05:46:14.891Z,25.30
2023-05-04T05:49:02.491Z,24.20
2023-05-04T05:51:50.045Z,23.70
2023-05-04T05:54:37.571Z,23.00
2023-05-04T05:57:25.276Z,22.30
2023-05-04T06:00:14.218Z,21.30
2023-05-04T06:03:02.073Z,20.50
2023-05-04T06:05:49.755Z,20.40
2023-05-04T06:08:37.764Z,20.20
2023-05-04T06:11:26.249Z,20.00
2023-05-04T06:14:13.851Z,19.70
2023-05-04T06:17:01.299Z,20.00
2023-05-04T06:19:51.201Z,19.90
2023-05-04T06:22:38.717Z,19.80
2023-05-04T06:25:26.322Z,19.80
2023-05-04T06:28:14.172Z,19.80
2023-05-04T06:31:02.381Z,19.50
2023-05-04T06:33:50.992Z,19.80
2023-05-04T06:36:38.709Z,20.60
2023-05-04T06:39:26.177Z,20.80
2023-05-04T06:42:13.722Z,20.60
2023-05-04T06:45:01.262Z,20.80
2023-05-04T06:47:48.844Z,20.80
2023-05-04T06:50:36.623Z,20.70
2023-05-04T06:53:25.177Z,20.70
2023-05-04T06:56:12.677Z,21.10
2023-05-04T06:59:00.292Z,20.70
2023-05-04T07:01:48.387Z,21.30
2023-05-04T07:04:35.915Z,21.00
2023-05-04T07:07:23.430Z,21.30
2023-05-04T07:10:11.305Z,21.10
2023-05-04T07:12:59.006Z,21.50
2023-05-04T07:15:46.593Z,21.10
2023-05-04T07:18:34.078Z,21.20
2023-05-04T07:21:27.490Z,21.20
2023-05-04T07:24:16.228Z,21.20
2023-05-04T07:27:03.891Z,21.60
2023-05-04T07:29:51.424Z,21.20
2023-05-04T07:32:40.390Z,21.60
2023-05-04T07:35:27.861Z,21.60
2023-05-04T07:38:15.457Z,22.00
2023-05-04T07:41:03.061Z,22.50
2023-05-04T07:43:50.599Z,22.50
2023-05-04T07:46:39.056Z,22.60
2023-05-04T07:49:26.957Z,22.40
2023-05-04T07:52:14.390Z,22.40
2023-05-04T07:55:01.861Z,22.70
2023-05-04T07:57:49.363Z,22.90
2023-05-04T08:00:39.344Z,23.00
2023-05-04T08:03:26.753Z,23.00
2023-05-04T08:06:14.422Z,23.10
2023-05-04T08:09:01.871Z,22.90
2023-05-04T08:11:50.430Z,22.90
2023-05-04T08:14:39.213Z,23.30
2023-05-04T08:17:27.149Z,22.90
2023-05-04T08:20:14.656Z,23.20
2023-05-04T08:23:04.040Z,23.80
2023-05-04T08:25:52.529Z,23.60
2023-05-04T08:28:41.331Z,23.80
2023-05-04T08:31:30.387Z,24.10
2023-05-04T08:34:17.836Z,24.30
2023-05-04T08:37:05.480Z,24.60
2023-05-04T08:39:52.935Z,24.90
2023-05-04T08:42:40.557Z,25.50
2023-05-04T08:45:29.313Z,25.10
2023-05-04T08:48:16.982Z,24.80
2023-05-04T08:51:06.709Z,25.50
2023-05-04T08:53:55.799Z,26.00
2023-05-04T08:56:49.475Z,25.40
2023-05-04T08:59:38.093Z,26.10
2023-05-04T09:02:26.810Z,26.10
2023-05-04T09:05:15.565Z,26.00
2023-05-04T09:08:03.572Z,25.80
2023-05-04T09:10:51.186Z,26.10
2023-05-04T09:13:38.814Z,26.50
2023-05-04T09:16:37.953Z,26.10
2023-05-04T09:19:26.509Z,26.50
2023-05-04T09:22:18.321Z,26.20
2023-05-04T09:25:13.832Z,26.40
2023-05-04T09:28:01.451Z,27.10
2023-05-04T09:30:49.277Z,27.20
2023-05-04T09:33:37.302Z,26.40
2023-05-04T09:36:25.283Z,25.80
2023-05-04T09:39:14.880Z,26.20
2023-05-04T09:42:02.734Z,26.70
2023-05-04T09:45:06.110Z,27.30
2023-05-04T09:47:55.438Z,27.00
2023-05-04T09:50:56.618Z,27.20
2023-05-04T09:53:45.074Z,27.20
2023-05-04T09:56:49.688Z,27.20
2023-05-04T09:59:38.821Z,27.60
2023-05-04T10:02:27.000Z,27.30
2023-05-04T10:05:17.955Z,26.80
2023-05-04T10:08:06.774Z,26.90
2023-05-04T10:10:54.686Z,26.50
2023-05-04T10:13:42.294Z,26.90
2023-05-04T10:16:47.733Z,26.70
2023-05-04T10:20:18.568Z,27.60
2023-05-04T10:23:36.488Z,27.90
2023-05-04T10:27:01.151Z,28.00
2023-05-04T10:29:51.498Z,27.20
2023-05-04T10:32:40.216Z,27.60
2023-05-04T10:35:28.038Z,27.30
2023-05-04T10:38:15.577Z,27.40
2023-05-04T10:41:23.310Z,28.00
2023-05-04T10:44:11.098Z,27.30
2023-05-04T10:47:09.184Z,27.70
2023-05-04T10:50:13.615Z,28.10
2023-05-04T10:53:01.113Z,28.30
2023-05-04T10:55:49.229Z,27.70
2023-05-04T10:58:36.791Z,28.10
2023-05-04T11:01:24.527Z,28.30
2023-05-04T11:04:24.656Z,28.60
2023-05-04T11:07:12.173Z,28.10
2023-05-04T11:10:00.599Z,28.40
2023-05-04T11:12:48.220Z,29.00
2023-05-04T11:15:52.229Z,28.60
2023-05-04T11:18:41.186Z,27.80
2023-05-04T11:21:28.947Z,28.40
2023-05-04T11:24:17.133Z,28.40
2023-05-04T11:27:04.583Z,28.70
2023-05-04T11:30:04.716Z,28.70
2023-05-04T11:32:54.159Z,29.00
2023-05-04T11:35:46.204Z,28.30
2023-05-04T11:38:33.809Z,28.60
2023-05-04T11:41:26.894Z,28.50
2023-05-04T11:44:14.404Z,28.50
2023-05-04T11:47:02.386Z,29.20
2023-05-04T11:49:50.323Z,28.40
2023-05-04T11:52:40.895Z,28.10
2023-05-04T11:55:31.337Z,28.30
2023-05-04T11:58:25.921Z,28.40
2023-05-04T12:01:14.864Z,28.50
2023-05-04T12:04:02.875Z,29.20
2023-05-04T12:06:50.752Z,29.10
2023-05-04T12:09:49.009Z,28.40
2023-05-04T12:12:37.064Z,28.80
2023-05-04T12:15:36.937Z,29.10
2023-05-04T12:18:29.669Z,28.90
2023-05-04T12:21:21.888Z,28.70
2023-05-04T12:24:10.132Z,28.10
2023-05-04T12:26:57.652Z,28.10
2023-05-04T12:29:45.112Z,28.40
2023-05-04T12:32:32.584Z,28.60
2023-05-04T12:35:20.209Z,28.70
2023-05-04T12:38:07.724Z,28.80
2023-05-04T12:40:59.004Z,28.60
2023-05-04T12:43:46.778Z,28.40
2023-05-04T12:46:34.481Z,28.50
2023-05-04T12:49:24.640Z,28.50
2023-05-04T12:52:12.561Z,28.80
2023-05-04T12:55:00.073Z,29.00
2023-05-04T12:57:48.072Z,29.10
2023-05-04T13:00:40.241Z,28.60
2023-05-04T13:03:27.929Z,28.30
2023-05-04T13:06:15.653Z,29.00
2023-05-04T13:09:06.063Z,28.30
2023-05-04T13:11:54.233Z,28.70
2023-05-04T13:14:41.649Z,28.90
2023-05-04T13:17:29.747Z,29.00
2023-05-04T13:20:17.228Z,28.70
2023-05-04T13:23:04.994Z,29.20
2023-05-04T13:25:53.353Z,28.60
2023-05-04T13:28:40.884Z,28.60
2023-05-04T13:31:28.556Z,28.70
2023-05-04T13:34:16.241Z,29.00
2023-05-04T13:37:04.103Z,28.30
2023-05-04T13:39:51.585Z,27.80
2023-05-04T13:42:39.313Z,28.10
2023-05-04T13:45:27.373Z,28.50
2023-05-04T13:48:14.986Z,28.10
2023-05-04T13:51:04.095Z,28.30
2023-05-04T13:53:51.674Z,27.90
2023-05-04T13:56:39.174Z,27.90
2023-05-04T13:59:27.051Z,28.10
2023-05-04T14:02:14.536Z,28.20
2023-05-04T14:05:04.163Z,28.20
2023-05-04T14:07:52.993Z,28.10
2023-05-04T14:10:40.709Z,28.30
2023-05-04T14:13:28.373Z,28.80
2023-05-04T14:16:15.855Z,28.40
2023-05-04T14:19:03.423Z,28.80
2023-05-04T14:21:50.884Z,28.90
2023-05-04T14:24:38.405Z,28.70
2023-05-04T14:27:27.493Z,28.90
2023-05-04T14:30:15.303Z,28.80
2023-05-04T14:33:03.846Z,28.70
2023-05-04T14:35:51.520Z,28.50
2023-05-04T14:38:38.990Z,28.90
2023-05-04T14:41:27.157Z,28.80
2023-05-04T14:44:14.633Z,28.80
2023-05-04T14:47:05.458Z,28.80
2023-05-04T14:49:55.050Z,29.20
2023-05-04T14:52:42.455Z,29.40
2023-05-04T14:55:33.671Z,28.70
2023-05-04T14:58:21.406Z,28.90
2023-05-04T15:01:08.852Z,29.10
2023-05-04T15:03:56.733Z,29.30
2023-05-04T15:06:44.392Z,28.50
2023-05-04T15:09:32.155Z,28.20
2023-05-04T15:12:19.783Z,28.50
2023-05-04T15:15:07.901Z,28.50
2023-05-04T15:17:55.554Z,28.90
2023-05-04T15:20:43.095Z,28.90
2023-05-04T15:23:30.794Z,28.80
2023-05-04T15:26:18.312Z,28.80
2023-05-04T15:29:06.691Z,28.90
2023-05-04T15:31:55.619Z,28.70
2023-05-04T15:34:50.825Z,28.90
2023-05-04T15:37:44.851Z,29.10
2023-05-04T15:40:32.587Z,29.20
2023-05-04T15:43:20.113Z,29.10
2023-05-04T15:46:07.798Z,28.80
2023-05-04T15:48:55.522Z,28.70
2023-05-04T15:51:43.054Z,29.00
2023-05-04T15:54:30.726Z,28.70
2023-05-04T15:57:18.138Z,28.90
2023-05-04T16:00:07.384Z,28.40
2023-05-04T16:02:55.739Z,28.70
2023-05-04T16:05:43.926Z,28.40
2023-05-04T16:08:31.614Z,28.80
2023-05-04T16:11:19.171Z,28.90
2023-05-04T16:14:06.749Z,28.90
2023-05-04T16:16:54.285Z,29.40
2023-05-04T16:19:42.253Z,29.30
2023-05-04T16:22:30.636Z,29.10
2023-05-04T16:25:18.265Z,29.10
2023-05-04T16:28:05.742Z,28.80
2023-05-04T16:30:53.245Z,28.70
2023-05-04T16:33:47.167Z,28.50
2023-05-04T16:36:34.726Z,28.20
2023-05-04T16:39:22.225Z,28.40
2023-05-04T16:42:09.819Z,28.10
2023-05-04T16:44:57.245Z,28.40
2023-05-04T16:47:45.340Z,28.70
2023-05-04T16:50:33.168Z,28.50
2023-05-04T16:53:21.090Z,28.10
2023-05-04T16:56:08.594Z,27.60
2023-05-04T16:58:56.213Z,27.70
2023-05-04T17:01:44.234Z,27.60
2023-05-04T17:04:32.006Z,27.60
2023-05-04T17:07:19.466Z,27.90
2023-05-04T17:10:08.940Z,28.10
2023-05-04T17:12:56.634Z,28.40
2023-05-04T17:15:44.166Z,28.10
2023-05-04T17:18:31.662Z,28.00
2023-05-04T17:21:19.145Z,28.00
2023-05-04T17:24:06.741Z,27.40
2023-05-04T17:26:54.166Z,27.00
2023-05-04T17:29:41.775Z,26.80
2023-05-04T17:32:30.460Z,26.90
2023-05-04T17:35:25.239Z,26.60
2023-05-04T17:38:13.713Z,26.40
2023-05-04T17:41:01.279Z,26.10
2023-05-04T17:43:50.277Z,26.00
2023-05-04T17:46:37.801Z,25.70
2023-05-04T17:49:25.644Z,25.50
2023-05-04T17:52:13.725Z,25.50
2023-05-04T17:55:01.508Z,25.50
2023-05-04T17:57:49.235Z,25.20
2023-05-04T18:00:37.212Z,25.10
2023-05-04T18:03:24.878Z,25.20
2023-05-04T18:06:12.437Z,25.10
2023-05-04T18:09:01.006Z,24.90
2023-05-04T18:11:48.743Z,24.70
2023-05-04T18:14:36.231Z,24.60
2023-05-04T18:17:23.727Z,24.50
2023-05-04T18:20:13.328Z,24.30
2023-05-04T18:23:02.153Z,24.30
2023-05-04T18:25:49.634Z,24.10
2023-05-04T18:28:37.201Z,23.90
2023-05-04T18:31:24.721Z,24.00
2023-05-04T18:34:12.320Z,23.90
2023-05-04T18:36:59.807Z,23.80
2023-05-04T18:39:47.955Z,23.90
2023-05-04T18:42:35.646Z,24.10
2023-05-04T18:45:23.170Z,23.90
2023-05-04T18:48:10.810Z,23.90
2023-05-04T18:50:58.555Z,23.70
2023-05-04T18:53:47.051Z,23.70
2023-05-04T18:56:34.542Z,23.80
2023-05-04T18:59:22.004Z,23.50
2023-05-04T19:02:09.673Z,23.40
2023-05-04T19:04:57.156Z,23.50
2023-05-04T19:07:44.593Z,23.60
2023-05-04T19:10:32.023Z,23.60
2023-05-04T19:13:20.911Z,23.40
2023-05-04T19:16:13.062Z,23.20
2023-05-04T19:19:00.731Z,23.10
2023-05-04T19:21:50.626Z,23.20
2023-05-04T19:24:38.095Z,23.40
2023-05-04T19:27:25.691Z,23.00
2023-05-04T19:30:13.554Z,22.90
2023-05-04T19:33:01.011Z,23.10
2023-05-04T19:35:48.533Z,22.90
2023-05-04T19:38:37.752Z,22.80
2023-05-04T19:41:25.381Z,22.70
2023-05-04T19:44:12.819Z,22.70
2023-05-04T19:47:00.536Z,22.70
2023-05-04T19:49:48.745Z,23.00
2023-05-04T19:52:37.495Z,23.00
2023-05-04T19:55:24.961Z,23.00
2023-05-04T19:58:12.616Z,22.90
2023-05-04T20:01:00.162Z,22.50
2023-05-04T20:03:47.900Z,22.50
2023-05-04T20:06:38.359Z,22.40
2023-05-04T20:09:25.854Z,22.30
2023-05-04T20:12:13.432Z,22.30
2023-05-04T20:15:00.963Z,22.30
2023-05-04T20:17:48.562Z,22.20
2023-05-04T20:20:36.332Z,22.10
2023-05-04T20:23:23.782Z,22.00
2023-05-04T20:26:11.536Z,21.90
2023-05-04T20:28:59.065Z,21.90
2023-05-04T20:31:46.506Z,21.80
2023-05-04T20:34:34.012Z,21.60
2023-05-04T20:37:21.447Z,21.60
2023-05-04T20:40:10.069Z,21.60
2023-05-04T20:42:57.596Z,21.40
2023-05-04T20:45:45.208Z,21.40
2023-05-04T20:48:32.864Z,21.50
2023-05-04T20:51:20.479Z,21.40
2023-05-04T20:54:08.207Z,21.40
2023-05-04T20:56:55.808Z,21.10
2023-05-04T20:59:43.233Z,21.00
2023-05-04T21:02:31.323Z,21.00
2023-05-04T21:05:19.267Z,21.00
2023-05-04T21:08:06.887Z,20.90
2023-05-04T21:10:54.417Z,20.80
2023-05-04T21:13:41.895Z,20.90
2023-05-04T21:16:29.394Z,20.90
2023-05-04T21:19:17.011Z,20.80
2023-05-04T21:22:04.464Z,20.80
2023-05-04T21:24:51.972Z,20.90
2023-05-04T21:27:39.486Z,21.00
2023-05-04T21:30:27.027Z,21.00
2023-05-04T21:33:14.490Z,21.00
2023-05-04T21:36:15.608Z,21.00
2023-05-04T21:39:03.455Z,20.90
2023-05-04T21:41:50.896Z,20.70
2023-05-04T21:44:38.356Z,20.30
2023-05-04T21:47:27.304Z,20.10
2023-05-04T21:50:16.579Z,20.00
2023-05-04T21:53:04.023Z,20.30
2023-05-04T21:55:51.594Z,20.20
2023-05-04T21:58:40.916Z,19.90
2023-05-04T22:01:28.816Z,19.80
2023-05-04T22:04:16.737Z,19.70
2023-05-04T22:07:04.282Z,19.60
2023-05-04T22:09:52.303Z,19.50
2023-05-04T22:12:39.791Z,19.50
2023-05-04T22:15:34.429Z,19.40
2023-05-04T22:18:26.346Z,19.10
2023-05-04T22:21:13.782Z,19.00
2023-05-04T22:24:01.272Z,19.10
2023-05-04T22:26:48.814Z,19.00
2023-05-04T22:29:39.200Z,19.20
2023-05-04T22:32:26.627Z,19.30
2023-05-04T22:35:14.283Z,19.00
2023-05-04T22:38:01.761Z,18.90
2023-05-04T22:40:50.138Z,18.70
2023-05-04T22:43:37.668Z,18.60
2023-05-04T22:46:25.827Z,18.40
2023-05-04T22:49:13.800Z,18.30
2023-05-04T22:52:01.307Z,18.30
2023-05-04T22:54:48.904Z,18.20
2023-05-04T22:57:36.985Z,18.10
2023-05-04T23:00:24.803Z,17.90
2023-05-04T23:03:12.435Z,17.70
2023-05-04T23:06:00.295Z,17.70
2023-05-04T23:08:47.809Z,17.60
2023-05-04T23:11:35.517Z,17.40
2023-05-04T23:14:23.009Z,17.30
2023-05-04T23:17:11.016Z,17.40
2023-05-04T23:19:58.492Z,17.20
2023-05-04T23:22:45.978Z,17.10
2023-05-04T23:25:33.815Z,17.20
2023-05-04T23:28:21.370Z,17.10
2023-05-04T23:31:08.900Z,17.20
2023-05-04T23:33:56.385Z,17.10
2023-05-04T23:36:43.857Z,17.00
2023-05-04T23:39:31.431Z,17.00
2023-05-04T23:42:18.890Z,17.00
2023-05-04T23:45:07.733Z,17.00
2023-05-04T23:47:55.226Z,17.00
2023-05-04T23:51:03.900Z,16.90
2023-05-04T23:53:51.504Z,16.90
2023-05-04T23:56:39.012Z,16.80
2023-05-04T23:59:27.239Z,16.80
